Time;durP1;ratioP1;P1;durP2;ratioP2;P2;SDS_P1;SDS_P2;PMS_P1;PMS_P2;Temp;Humidity;BMP_temperature;BMP_pressure;BME280_temperature;BME280_humidity;BME280_pressure;Samples;Min_cycle;Max_cycle;Signal;HPM_P1;HPM_P2
2022/05/05 00:02:51;;;;;;;15.73;6.00;;;;;;;10.11;65.89;100731.33;3442800;84;99061;-82
2022/05/05 00:07:52;;;;;;;17.57;7.03;;;;;;;10.08;65.94;100721.64;3456835;82;99364;-82
2022/05/05 00:18:13;;;;;;;11.43;5.90;;;;;;;10.01;66.50;100726.39;3449757;85;98935;-82
2022/05/05 00:23:14;;;;;;;15.30;5.93;;;;;;;9.96;65.91;100736.31;3443350;84;99030;-82
2022/05/05 00:28:16;;;;;;;9.97;5.37;;;;;;;9.94;66.16;100742.77;3441275;85;44218;-82
2022/05/05 00:33:17;;;;;;;14.17;6.40;;;;;;;9.88;66.44;100740.08;3447580;84;98684;-82
2022/05/05 00:38:18;;;;;;;15.53;6.40;;;;;;;9.82;67.03;100732.52;3450838;84;98476;-83
2022/05/05 00:43:19;;;;;;;11.70;5.73;;;;;;;9.77;66.56;100737.70;3444893;83;98713;-82
2022/05/05 00:48:25;;;;;;;13.53;6.30;;;;;;;9.72;67.10;100734.48;3457723;82;99107;-82
2022/05/05 00:53:27;;;;;;;14.15;6.62;;;;;;;9.68;67.32;100737.16;3497790;84;98704;-83
2022/05/05 00:58:28;;;;;;;13.38;6.53;;;;;;;9.65;67.13;100741.22;3513023;83;34799;-83
2022/05/05 01:03:36;;;;;;;13.80;6.13;;;;;;;9.61;67.33;100732.91;3467583;83;98475;-84
2022/05/05 01:08:37;;;;;;;14.33;6.30;;;;;;;9.57;67.63;100732.60;3480387;84;98311;-82
2022/05/05 01:13:40;;;;;;;14.87;5.80;;;;;;;9.53;68.10;100724.30;3525481;82;98933;-83
2022/05/05 01:18:41;;;;;;;12.58;6.10;;;;;;;9.49;67.97;100719.30;3517785;83;99012;-82
2022/05/05 01:23:42;;;;;;;13.47;5.93;;;;;;;9.48;67.97;100727.33;3499155;83;99068;-82
2022/05/05 01:28:45;;;;;;;11.27;5.33;;;;;;;9.45;68.43;100715.70;3498179;82;98922;-82
2022/05/05 01:33:47;;;;;;;11.03;6.20;;;;;;;9.43;68.57;100714.48;3544628;83;98301;-83
2022/05/05 01:38:48;;;;;;;12.65;6.58;;;;;;;9.41;68.76;100718.95;3522634;83;98542;-83
2022/05/05 01:43:49;;;;;;;11.30;5.87;;;;;;;9.40;68.80;100704.20;3490864;83;98685;-83
2022/05/05 01:48:50;;;;;;;14.70;6.43;;;;;;;9.37;69.03;100702.20;3512268;83;98724;-83
2022/05/05 01:53:51;;;;;;;12.20;6.00;;;;;;;9.37;68.89;100717.30;3538479;82;98600;-83
2022/05/05 01:58:52;;;;;;;14.20;6.47;;;;;;;9.35;69.07;100718.22;3513946;83;98938;-82
2022/05/05 02:03:53;;;;;;;11.20;6.03;;;;;;;9.35;69.36;100721.78;3507849;83;98419;-84
2022/05/05 02:08:56;;;;;;;14.35;6.25;;;;;;;9.36;69.47;100717.06;3488337;83;98995;-83
2022/05/05 02:13:57;;;;;;;13.80;7.00;;;;;;;9.35;69.45;100716.85;3511516;83;98672;-82
2022/05/05 02:18:58;;;;;;;18.77;7.57;;;;;;;9.35;69.26;100711.36;3496941;83;98801;-82
2022/05/05 02:23:58;;;;;;;16.60;7.73;;;;;;;9.38;69.70;100700.44;3474616;83;98679;-83
2022/05/05 02:29:00;;;;;;;15.57;7.60;;;;;;;9.41;69.79;100699.73;3497151;82;99037;-83
2022/05/05 02:34:01;;;;;;;15.20;7.50;;;;;;;9.43;69.78;100696.02;3518937;83;98247;-83
2022/05/05 02:39:03;;;;;;;14.83;7.40;;;;;;;9.48;70.02;100695.73;3525630;83;98415;-83
2022/05/05 02:44:04;;;;;;;14.67;7.10;;;;;;;9.52;70.07;100691.11;3517776;83;98431;-82
2022/05/05 02:49:05;;;;;;;14.47;7.03;;;;;;;9.57;69.71;100697.69;3526592;83;99072;-83
2022/05/05 02:54:52;;;;;;;12.43;6.83;;;;;;;9.61;70.12;100701.87;3550858;82;98963;-82
2022/05/05 02:59:09;;;;;;;14.67;6.87;;;;;;;9.69;69.62;100695.34;3544355;82;99041;-83
2022/05/05 03:04:10;;;;;;;16.70;7.47;;;;;;;9.69;69.62;100695.34;3505943;83;98562;-83
2022/05/05 03:09:11;;;;;;;15.20;7.87;;;;;;;9.75;69.77;100702.16;3533259;83;98520;-84
2022/05/05 03:14:12;;;;;;;14.47;7.37;;;;;;;9.80;70.29;100705.95;3548453;82;98653;-83
2022/05/05 03:19:13;;;;;;;14.30;6.90;;;;;;;9.83;69.85;100704.67;3494307;84;98633;-83
2022/05/05 03:24:14;;;;;;;14.17;6.80;;;;;;;9.86;69.62;100699.02;3531670;83;99207;-81
2022/05/05 03:29:15;;;;;;;14.83;6.90;;;;;;;9.88;69.60;100696.69;3536715;83;98817;-82
2022/05/05 03:34:16;;;;;;;12.20;6.53;;;;;;;9.91;69.58;100698.13;3519900;83;98917;-83
2022/05/05 03:39:17;;;;;;;15.13;7.58;;;;;;;9.94;69.51;100702.91;3472458;83;99124;-82
2022/05/05 03:44:18;;;;;;;15.70;7.17;;;;;;;9.97;69.57;100708.25;3533055;82;98586;-82
2022/05/05 03:49:19;;;;;;;15.83;6.93;;;;;;;9.98;69.85;100709.23;3546733;81;98877;-83
2022/05/05 03:54:20;;;;;;;18.70;9.10;;;;;;;10.03;69.49;100713.06;3527563;83;98841;-83
2022/05/05 03:59:24;;;;;;;18.93;8.80;;;;;;;10.08;69.48;100717.52;3540026;82;99049;-83
2022/05/05 04:04:25;;;;;;;14.58;7.80;;;;;;;10.12;69.55;100725.23;3538725;82;98767;-83
2022/05/05 04:09:26;;;;;;;16.70;7.40;;;;;;;10.17;69.34;100734.55;3542906;82;99070;-83
2022/05/05 04:14:27;;;;;;;17.10;8.10;;;;;;;10.22;69.37;100745.25;3537618;82;98793;-82
2022/05/05 04:19:28;;;;;;;17.57;9.93;;;;;;;10.22;69.36;100732.87;3543022;82;99286;-83
2022/05/05 04:24:29;;;;;;;18.60;8.97;;;;;;;10.23;69.53;100742.14;3429202;84;99291;-83
2022/05/05 04:29:30;;;;;;;15.67;8.63;;;;;;;10.19;69.94;100738.52;3522249;83;99058;-83
2022/05/05 04:34:31;;;;;;;16.97;8.10;;;;;;;10.20;69.69;100742.08;3517324;83;98578;-83
2022/05/05 04:39:32;;;;;;;18.87;9.73;;;;;;;10.24;69.45;100747.07;3520952;83;98590;-83
2022/05/05 04:44:33;;;;;;;28.13;10.03;;;;;;;10.25;69.93;100748.05;3513682;83;98970;-84
2022/05/05 04:49:34;;;;;;;18.63;9.00;;;;;;;10.29;70.55;100744.80;3523711;82;99203;-83
2022/05/05 04:54:35;;;;;;;16.13;8.80;;;;;;;10.37;70.43;100751.98;3530002;83;99046;-83
2022/05/05 04:59:36;;;;;;;16.80;9.27;;;;;;;10.51;70.60;100754.98;3532617;82;99269;-83
2022/05/05 05:04:37;;;;;;;37.73;11.10;;;;;;;10.69;70.62;100760.19;3532192;82;98648;-83
2022/05/05 05:09:38;;;;;;;18.83;8.83;;;;;;;10.85;70.49;100756.70;3541759;82;98868;-85
2022/05/05 05:14:39;;;;;;;24.50;9.43;;;;;;;11.02;70.74;100749.28;3533690;82;98864;-83
2022/05/05 05:19:40;;;;;;;15.43;8.07;;;;;;;11.19;70.34;100743.25;3537133;83;99022;-84
2022/05/05 05:24:41;;;;;;;17.10;9.40;;;;;;;11.37;70.31;100743.46;3525792;83;98938;-84
2022/05/05 05:29:42;;;;;;;17.57;9.87;;;;;;;11.49;70.07;100748.16;3541020;82;99051;-83
2022/05/05 05:34:43;;;;;;;27.87;10.87;;;;;;;11.58;69.75;100745.91;3537460;82;99210;-89
2022/05/05 05:39:44;;;;;;;19.37;9.70;;;;;;;11.69;69.68;100746.86;3499902;83;33253;-88
2022/05/05 05:44:44;;;;;;;25.47;10.40;;;;;;;11.76;69.65;100745.55;3530345;82;98813;-89
2022/05/05 05:49:45;;;;;;;18.30;10.08;;;;;;;11.95;69.89;100747.34;3486853;82;99517;-88
2022/05/05 05:54:46;;;;;;;18.37;9.77;;;;;;;12.34;69.97;100746.55;3485224;81;99436;-89
2022/05/05 05:59:47;;;;;;;24.13;9.50;;;;;;;12.86;69.50;100743.39;3498267;83;99062;-90
2022/05/05 06:04:48;;;;;;;53.33;13.60;;;;;;;13.41;68.04;100752.45;3524464;83;99439;-88
2022/05/05 06:09:49;;;;;;;21.00;10.07;;;;;;;13.87;66.69;100746.48;3466462;85;31588;-88
2022/05/05 06:14:50;;;;;;;18.97;9.90;;;;;;;14.41;66.27;100747.59;3468486;83;98946;-89
2022/05/05 06:19:51;;;;;;;20.67;11.47;;;;;;;14.99;64.87;100753.52;3447824;83;99025;-88
2022/05/05 06:24:51;;;;;;;26.33;11.90;;;;;;;15.42;63.58;100750.25;3496668;83;99572;-87
2022/05/05 06:29:52;;;;;;;28.47;11.10;;;;;;;16.01;63.26;100751.16;3531360;82;99208;-87
2022/05/05 06:34:54;;;;;;;19.32;9.33;;;;;;;16.46;61.98;100743.94;3467161;83;99117;-89
2022/05/05 06:39:55;;;;;;;22.67;11.08;;;;;;;16.67;60.77;100745.77;3459277;83;31592;-87
2022/05/05 06:44:56;;;;;;;19.70;9.60;;;;;;;16.73;59.68;100752.47;3450301;83;99022;-87
2022/05/05 06:49:57;;;;;;;18.12;10.18;;;;;;;17.00;59.39;100751.40;3468737;83;99114;-87
2022/05/05 06:54:58;;;;;;;22.25;10.53;;;;;;;17.27;58.72;100751.53;3514627;82;99185;-87
2022/05/05 06:59:59;;;;;;;20.10;11.18;;;;;;;17.53;58.14;100751.64;3494936;82;99060;-90
2022/05/05 07:15:40;;;;;;;14.53;8.83;;;;;;;18.17;56.73;100753.77;3464652;83;98659;-84
2022/05/05 07:20:41;;;;;;;14.43;8.98;;;;;;;18.50;56.15;100758.47;3421632;83;99137;-87
2022/05/05 07:25:43;;;;;;;16.97;8.30;;;;;;;18.72;54.92;100774.23;3519549;82;99057;-89
2022/05/05 07:30:44;;;;;;;24.90;9.77;;;;;;;18.88;53.92;100768.78;3527344;82;98977;-89
2022/05/05 07:35:47;;;;;;;21.23;9.45;;;;;;;19.14;52.36;100766.53;3521339;82;99304;-89
2022/05/05 07:40:49;;;;;;;15.83;8.28;;;;;;;19.14;52.36;100766.53;3492037;82;99067;-90
2022/05/05 07:45:49;;;;;;;19.92;8.90;;;;;;;19.31;52.68;100764.84;3536447;82;31620;-89
2022/05/05 07:50:50;;;;;;;21.33;9.43;;;;;;;19.61;52.04;100762.46;3495292;83;99271;-87
2022/05/05 07:55:51;;;;;;;24.63;9.18;;;;;;;19.95;51.58;100753.91;3561444;82;99454;-87
2022/05/05 08:00:52;;;;;;;14.85;7.47;;;;;;;20.19;50.83;100775.58;3488650;84;99056;-89
2022/05/05 08:05:53;;;;;;;19.67;7.80;;;;;;;20.48;50.51;100771.69;3510313;83;98981;-88
2022/05/05 08:10:55;;;;;;;14.55;7.58;;;;;;;20.86;49.48;100771.95;3555063;82;98921;-89
2022/05/05 08:15:57;;;;;;;16.32;7.40;;;;;;;21.15;49.11;100777.03;3518725;83;31651;-91
2022/05/05 08:20:58;;;;;;;10.45;6.05;;;;;;;21.86;48.21;100778.06;3549586;82;99055;-85
2022/05/05 08:31:18;;;;;;;14.10;6.78;;;;;;;23.15;45.50;100785.74;3519012;83;99353;-88
2022/05/05 08:36:19;;;;;;;15.05;5.87;;;;;;;23.82;44.72;100768.66;3552307;82;99353;-88
2022/05/05 08:41:20;;;;;;;19.20;7.45;;;;;;;24.31;42.26;100797.72;3500658;84;99128;-87
2022/05/05 08:46:26;;;;;;;17.92;6.42;;;;;;;24.95;42.98;100797.50;3506089;83;32053;-87
2022/05/05 08:51:32;;;;;;;19.23;6.37;;;;;;;25.63;39.08;100799.80;3522147;82;99209;-86
2022/05/05 08:56:33;;;;;;;14.98;6.35;;;;;;;25.68;38.72;100795.55;3545570;82;98838;-87
2022/05/05 09:01:41;;;;;;;18.12;5.80;;;;;;;26.14;38.64;100802.09;3536659;82;99138;-87
2022/05/05 09:06:50;;;;;;;11.45;5.58;;;;;;;26.97;38.97;100796.41;3545299;82;99079;-89
2022/05/05 09:12:15;;;;;;;10.75;5.35;;;;;;;27.11;36.61;100803.38;3538120;83;99094;-86
2022/05/05 09:17:21;;;;;;;12.95;6.45;;;;;;;27.34;36.27;100790.69;3495799;83;99471;-89
2022/05/05 09:22:24;;;;;;;12.23;6.17;;;;;;;28.07;36.93;100794.42;3556419;83;98838;-89
2022/05/05 09:27:29;;;;;;;10.60;5.37;;;;;;;27.93;34.58;100783.90;3511870;83;98821;-86
2022/05/05 09:32:41;;;;;;;;;;;;;;;28.52;34.76;100780.41;3544946;80;99160;-90
2022/05/05 09:37:48;;;;;;;16.32;6.20;;;;;;;29.12;33.56;100786.20;3493724;82;84204;-86
2022/05/05 09:42:55;;;;;;;15.55;6.33;;;;;;;29.92;33.46;100785.47;3511152;82;99108;-88
2022/05/05 09:48:01;;;;;;;13.03;6.10;;;;;;;30.45;32.74;100779.28;3544416;82;98966;-88
2022/05/05 09:58:25;;;;;;;13.83;4.85;;;;;;;30.83;31.37;100770.27;3537733;82;25875;-89
2022/05/05 10:08:57;;;;;;;15.78;5.83;;;;;;;31.59;30.57;100774.73;3548710;82;99245;-89
2022/05/05 10:14:05;;;;;;;9.10;5.15;;;;;;;31.74;29.98;100769.63;3496743;83;99049;-89
2022/05/05 10:19:07;;;;;;;10.95;5.30;;;;;;;32.05;29.08;100764.52;3563489;82;98840;-86
2022/05/05 10:24:44;;;;;;;9.18;5.08;;;;;;;31.87;27.77;100763.56;3472310;83;99087;-84
2022/05/05 10:29:46;;;;;;;13.15;5.20;;;;;;;31.41;27.47;100760.98;3551663;82;98937;-85
2022/05/05 10:35:09;;;;;;;10.90;5.62;;;;;;;31.14;28.44;100755.30;3497766;83;99327;-88
2022/05/05 10:40:11;;;;;;;9.25;5.08;;;;;;;31.35;28.10;100755.91;3497986;83;25900;-87
2022/05/05 10:45:20;;;;;;;12.93;5.28;;;;;;;31.03;27.85;100743.09;3555645;82;99011;-88
2022/05/05 10:50:31;;;;;;;11.20;5.33;;;;;;;31.52;28.06;100736.19;3562668;82;99322;-85
2022/05/05 10:55:48;;;;;;;11.10;5.33;;;;;;;32.07;26.75;100733.44;3514178;83;98977;-88
2022/05/05 11:00:55;;;;;;;17.95;5.92;;;;;;;31.41;26.49;100744.69;3493632;83;99120;-87
2022/05/05 11:06:15;;;;;;;12.73;5.10;;;;;;;30.80;26.89;100734.31;3479108;83;98627;-88
2022/05/05 11:22:08;;;;;;;8.68;4.45;;;;;;;29.16;27.21;100732.91;3541155;82;98943;-85
2022/05/05 11:27:22;;;;;;;8.78;4.65;;;;;;;29.17;28.36;100720.29;3519911;83;98638;-89
2022/05/05 11:32:35;;;;;;;10.43;5.17;;;;;;;29.11;27.77;100714.57;3555897;82;99028;-91
2022/05/05 11:37:41;;;;;;;11.83;5.62;;;;;;;28.78;27.76;100719.75;3510990;82;99517;-89
2022/05/05 11:48:19;;;;;;;23.10;6.50;;;;;;;27.87;29.28;100720.78;3531373;82;99355;-89
2022/05/05 11:53:20;;;;;;;9.70;5.75;;;;;;;27.86;28.77;100726.92;3510185;83;99270;-89
2022/05/05 12:03:41;;;;;;;10.75;6.12;;;;;;;26.61;29.44;100724.63;3507872;83;99351;-89
2022/05/05 12:08:42;;;;;;;9.60;6.15;;;;;;;26.55;29.99;100732.19;3506155;83;99182;-85
2022/05/05 12:13:43;;;;;;;9.63;5.75;;;;;;;26.31;29.89;100734.14;3480331;84;99219;-86
2022/05/05 12:18:54;;;;;;;12.43;5.87;;;;;;;25.84;30.51;100731.77;3516787;82;98841;-85
2022/05/05 12:24:02;;;;;;;15.70;6.90;;;;;;;25.82;32.08;100748.39;3512629;83;99125;-88
2022/05/05 12:29:15;;;;;;;10.72;6.62;;;;;;;25.39;33.62;100768.48;3505548;83;99255;-85
2022/05/05 12:34:25;;;;;;;13.25;7.53;;;;;;;24.87;34.55;100766.68;3489921;83;98783;-85
2022/05/05 12:39:26;;;;;;;14.25;6.85;;;;;;;24.43;35.79;100761.66;3543596;83;99261;-88
2022/05/05 12:44:33;;;;;;;14.40;6.20;;;;;;;23.90;36.89;100763.75;3533187;83;99054;-87
2022/05/05 12:49:37;;;;;;;10.75;5.15;;;;;;;23.34;40.06;100743.95;3549817;83;98993;-87
2022/05/05 12:59:57;;;;;;;6.47;4.33;;;;;;;23.22;41.12;100742.75;3524184;83;98788;-86
2022/05/05 13:04:58;;;;;;;10.53;5.65;;;;;;;23.33;41.63;100748.78;3545429;82;98443;-86
2022/05/05 13:09:59;;;;;;;10.95;5.80;;;;;;;23.26;42.09;100754.66;3551388;82;98637;-86
2022/05/05 13:15:00;;;;;;;11.38;7.15;;;;;;;23.30;42.95;100758.13;3540454;82;98935;-86
2022/05/05 13:20:01;;;;;;;11.75;7.72;;;;;;;22.94;43.64;100757.75;3524489;83;99399;-85
2022/05/05 13:25:02;;;;;;;10.30;6.65;;;;;;;22.82;44.44;100757.17;3475756;83;99409;-86
2022/05/05 13:30:06;;;;;;;14.83;7.37;;;;;;;22.87;45.12;100758.00;3553374;82;99360;-86
2022/05/05 13:35:08;;;;;;;11.30;7.70;;;;;;;22.81;45.47;100761.83;3508733;83;99376;-85
2022/05/05 13:40:10;;;;;;;13.93;8.45;;;;;;;22.98;46.02;100754.22;3470735;83;31853;-86
2022/05/05 13:45:11;;;;;;;15.78;7.42;;;;;;;22.96;45.45;100759.52;3485383;83;99341;-87
2022/05/05 13:50:13;;;;;;;10.35;7.22;;;;;;;23.18;45.72;100752.55;3507789;83;99098;-86
2022/05/05 13:55:14;;;;;;;9.73;5.87;;;;;;;23.28;44.98;100749.99;3476162;83;99406;-86
2022/05/05 14:00:16;;;;;;;10.63;6.47;;;;;;;23.45;44.76;100750.77;3548286;82;98901;-89
2022/05/05 14:05:17;;;;;;;10.10;5.70;;;;;;;23.68;44.38;100755.13;3521691;83;99272;-88
2022/05/05 14:15:38;;;;;;;11.70;6.40;;;;;;;23.97;42.97;100740.21;3526979;83;98917;-89
2022/05/05 14:20:39;;;;;;;9.83;5.05;;;;;;;23.89;42.62;100741.10;3550935;82;99188;-88
2022/05/05 14:25:40;;;;;;;8.58;5.10;;;;;;;23.80;42.94;100756.47;3551188;82;99210;-89
2022/05/05 14:30:41;;;;;;;8.73;5.73;;;;;;;23.77;43.02;100758.01;3499035;83;98894;-89
2022/05/05 14:35:43;;;;;;;10.18;6.60;;;;;;;23.77;42.82;100754.56;3545452;82;99230;-89
2022/05/05 14:40:44;;;;;;;10.65;7.12;;;;;;;23.73;42.81;100762.36;3540642;82;98723;-88
2022/05/05 14:45:47;;;;;;;11.63;7.87;;;;;;;23.73;43.54;100771.41;3548831;82;98849;-89
2022/05/05 14:50:47;;;;;;;15.75;8.80;;;;;;;23.58;44.11;100776.77;3494488;83;99314;-87
2022/05/05 14:55:49;;;;;;;11.88;8.35;;;;;;;23.29;45.37;100769.20;3477242;83;99517;-87
2022/05/05 15:00:50;;;;;;;12.80;9.93;;;;;;;23.19;47.47;100777.98;3428301;84;99301;-87
2022/05/05 15:05:51;;;;;;;12.60;10.03;;;;;;;22.89;48.35;100782.19;3416735;85;99364;-85
2022/05/05 15:10:52;;;;;;;10.28;8.25;;;;;;;22.65;49.91;100789.42;3478503;84;99288;-86
2022/05/05 15:15:53;;;;;;;19.45;14.33;;;;;;;22.33;50.08;100805.03;3483707;84;99139;-85
2022/05/05 15:20:54;;;;;;;15.90;11.05;;;;;;;22.07;51.07;100811.07;3488248;83;99084;-85
2022/05/05 15:25:55;;;;;;;17.98;11.63;;;;;;;21.71;52.37;100815.52;3468482;84;99561;-87
2022/05/05 15:30:56;;;;;;;19.73;11.80;;;;;;;21.30;53.06;100806.23;3437241;85;99655;-85
2022/05/05 15:35:57;;;;;;;17.10;11.93;;;;;;;20.97;54.21;100804.67;3498389;83;99464;-86
2022/05/05 15:40:58;;;;;;;14.78;11.33;;;;;;;20.72;54.76;100815.05;3436918;84;99280;-86
2022/05/05 15:45:58;;;;;;;16.02;9.95;;;;;;;20.40;56.21;100825.42;3465542;84;98889;-86
2022/05/05 15:51:00;;;;;;;14.68;9.13;;;;;;;19.97;58.11;100817.16;3477754;83;99397;-87
2022/05/05 15:56:01;;;;;;;12.23;9.55;;;;;;;19.59;58.63;100817.92;3495501;83;98987;-87
2022/05/05 16:01:04;;;;;;;13.18;9.25;;;;;;;19.40;58.64;100822.89;3412457;86;99054;-89
2022/05/05 16:06:06;;;;;;;17.12;11.35;;;;;;;19.28;58.90;100823.48;3453490;85;99057;-86
2022/05/05 16:11:06;;;;;;;18.07;12.18;;;;;;;19.21;59.66;100831.41;3457962;84;99075;-85
2022/05/05 16:16:07;;;;;;;17.60;11.88;;;;;;;19.08;60.86;100826.20;3430521;86;34838;-85
2022/05/05 16:21:08;;;;;;;14.40;11.15;;;;;;;19.00;61.44;100831.73;3404028;84;99503;-86
2022/05/05 16:31:29;;;;;;;18.92;13.32;;;;;;;18.81;62.39;100846.38;3426803;85;99610;-85
2022/05/05 16:36:30;;;;;;;17.23;12.70;;;;;;;18.75;63.49;100865.42;3441968;85;99653;-87
2022/05/05 16:41:31;;;;;;;12.70;9.03;;;;;;;18.36;65.97;100884.08;3497346;83;99138;-84
2022/05/05 16:46:33;;;;;;;11.12;7.65;;;;;;;17.92;64.82;100887.61;3432009;85;35512;-84
2022/05/05 16:51:34;;;;;;;12.37;7.70;;;;;;;17.53;64.20;100901.94;3479044;83;99274;-84
2022/05/05 16:56:37;;;;;;;15.90;8.15;;;;;;;17.14;64.74;100906.22;3456003;84;98999;-85
2022/05/05 17:01:38;;;;;;;15.53;7.83;;;;;;;16.73;66.62;100920.02;3537503;82;99029;-86
2022/05/05 17:06:41;;;;;;;12.70;7.45;;;;;;;16.54;66.44;100926.09;3501779;83;99386;-84
2022/05/05 17:11:42;;;;;;;11.20;7.25;;;;;;;16.30;67.16;100936.67;3541086;81;99025;-85
2022/05/05 17:16:43;;;;;;;10.82;6.87;;;;;;;16.18;66.94;100953.02;3556925;81;34002;-84
2022/05/05 17:21:44;;;;;;;10.30;7.47;;;;;;;16.09;66.60;100954.02;3539991;83;99331;-85
2022/05/05 17:26:45;;;;;;;15.58;8.85;;;;;;;16.03;66.12;100962.57;3560613;82;98888;-82
2022/05/05 17:31:46;;;;;;;12.00;8.38;;;;;;;15.96;66.93;100968.15;3550677;83;99031;-83
2022/05/05 17:36:47;;;;;;;13.50;8.13;;;;;;;15.89;67.15;100969.53;3541254;83;99171;-82
2022/05/05 17:41:48;;;;;;;13.03;9.13;;;;;;;15.84;67.54;100972.71;3553992;83;99032;-83
2022/05/05 17:52:08;;;;;;;15.03;8.45;;;;;;;15.67;69.14;100959.66;3543538;83;99310;-84
2022/05/05 17:57:09;;;;;;;14.75;9.68;;;;;;;15.58;70.89;100957.90;3541908;82;99380;-84
2022/05/05 18:02:13;;;;;;;11.60;7.80;;;;;;;15.57;70.80;100960.45;3531862;82;99441;-85
2022/05/05 18:07:14;;;;;;;13.38;9.18;;;;;;;15.56;70.95;100954.12;3528408;82;99404;-84
2022/05/05 18:12:15;;;;;;;13.13;9.07;;;;;;;15.57;71.31;100946.58;3478689;83;99356;-84
2022/05/05 18:17:16;;;;;;;11.70;8.60;;;;;;;15.57;71.51;100946.58;3489929;83;99051;-85
2022/05/05 18:22:17;;;;;;;13.85;10.93;;;;;;;15.53;71.81;100937.48;3488200;83;99066;-85
2022/05/05 18:27:18;;;;;;;17.62;10.93;;;;;;;15.39;74.58;100951.35;3490816;83;99496;-86
2022/05/05 18:32:20;;;;;;;15.72;11.12;;;;;;;15.18;75.39;100949.92;3477939;83;99573;-85
2022/05/05 18:37:20;;;;;;;15.80;11.35;;;;;;;15.09;76.31;100951.70;3493913;83;99681;-86
2022/05/05 18:42:21;;;;;;;18.25;12.45;;;;;;;14.95;77.76;100950.31;3492661;83;99573;-86
2022/05/05 18:47:23;;;;;;;18.17;11.63;;;;;;;14.87;78.98;100952.86;3501103;83;99630;-86
2022/05/05 18:52:24;;;;;;;16.33;12.33;;;;;;;14.81;79.23;100949.47;3487209;83;99297;-86
2022/05/05 18:57:25;;;;;;;17.33;12.10;;;;;;;14.77;79.40;100948.08;3541750;82;99384;-84
2022/05/05 19:02:26;;;;;;;17.57;12.67;;;;;;;14.69;79.66;100949.27;3540787;82;99626;-85
2022/05/05 19:07:28;;;;;;;17.82;12.37;;;;;;;14.60;80.50;100962.68;3512540;83;99113;-85
2022/05/05 19:12:29;;;;;;;17.55;12.37;;;;;;;14.49;80.56;100960.47;3552095;82;99200;-85
2022/05/05 19:17:30;;;;;;;19.17;13.50;;;;;;;14.37;81.01;100958.05;3549184;82;99554;-84
2022/05/05 19:22:31;;;;;;;15.90;11.73;;;;;;;14.25;81.56;100973.63;3538788;82;98903;-84
2022/05/05 19:27:32;;;;;;;14.95;11.70;;;;;;;14.12;81.53;100990.93;3552458;82;99489;-85
2022/05/05 19:32:36;;;;;;;14.20;10.88;;;;;;;13.99;82.10;101000.72;3549857;82;98979;-85
2022/05/05 19:37:37;;;;;;;17.82;10.40;;;;;;;13.89;81.56;101002.84;3459797;84;99483;-84
2022/05/05 19:42:38;;;;;;;17.53;11.57;;;;;;;13.78;81.68;101009.67;3491282;83;99251;-86
2022/05/05 19:47:40;;;;;;;17.73;11.03;;;;;;;13.70;81.74;101016.34;3551805;82;99287;-85
2022/05/05 19:52:41;;;;;;;17.73;11.65;;;;;;;13.63;81.37;101017.66;3552256;82;98860;-84
2022/05/05 20:03:09;;;;;;;15.48;10.93;;;;;;;13.48;81.72;101036.70;3467068;83;99308;-84
2022/05/05 20:08:08;;;;;;;16.48;10.45;;;;;;;13.39;81.97;101035.41;3530331;82;99768;-84
2022/05/05 20:13:09;;;;;;;13.48;9.88;;;;;;;13.27;82.08;101030.98;3510161;82;99241;-83
2022/05/05 20:18:10;;;;;;;16.20;10.80;;;;;;;13.18;81.99;101035.20;3481608;83;99400;-82
2022/05/05 20:23:11;;;;;;;14.70;10.00;;;;;;;13.11;81.54;101048.38;3529487;82;99144;-83
2022/05/05 20:28:13;;;;;;;14.90;9.47;;;;;;;13.01;81.78;101053.20;3482247;83;26755;-82
2022/05/05 20:33:14;;;;;;;14.30;9.53;;;;;;;12.91;81.31;101053.06;3472708;83;98878;-83
2022/05/05 20:38:15;;;;;;;16.30;9.77;;;;;;;12.82;81.15;101068.52;3500500;82;99267;-82
2022/05/05 20:43:17;;;;;;;16.83;9.60;;;;;;;12.73;81.02;101081.84;3477911;83;99218;-82
2022/05/05 20:48:18;;;;;;;13.93;9.30;;;;;;;12.64;81.16;101076.41;3482280;83;99023;-83
2022/05/05 20:53:19;;;;;;;13.60;9.00;;;;;;;12.49;81.14;101076.77;3488413;83;99116;-84
2022/05/05 20:58:21;;;;;;;15.00;8.53;;;;;;;12.32;81.47;101075.95;3547098;82;29653;-83
2022/05/05 21:03:22;;;;;;;15.10;7.83;;;;;;;12.18;81.77;101070.24;3549191;82;99360;-83
2022/05/05 21:08:25;;;;;;;13.40;8.37;;;;;;;12.09;81.67;101084.06;3491908;82;99000;-79
2022/05/05 21:13:26;;;;;;;13.08;7.05;;;;;;;11.97;81.80;101090.61;3547933;82;99278;-79
2022/05/05 21:18:27;;;;;;;14.28;7.95;;;;;;;11.84;81.98;101097.47;3508330;83;99119;-83
2022/05/05 21:28:48;;;;;;;14.15;8.83;;;;;;;11.60;81.60;101092.91;3556071;83;33059;-77
2022/05/05 21:33:49;;;;;;;12.40;8.30;;;;;;;11.52;82.55;101098.06;3554453;81;99009;-77
2022/05/05 21:38:50;;;;;;;12.80;7.83;;;;;;;11.41;82.33;101109.48;3548421;82;98935;-77
2022/05/05 21:43:51;;;;;;;14.67;8.23;;;;;;;11.38;81.99;101117.90;3553889;82;99076;-82
2022/05/05 21:48:56;;;;;;;13.23;8.07;;;;;;;11.26;82.81;101122.20;3567928;83;99498;-82
2022/05/05 21:53:55;;;;;;;13.40;8.50;;;;;;;11.13;82.76;101124.87;3541612;82;99340;-80
2022/05/05 21:58:56;;;;;;;13.87;7.43;;;;;;;11.02;82.92;101123.88;3555099;83;26508;-80
2022/05/05 22:03:57;;;;;;;11.97;7.37;;;;;;;10.84;83.18;101117.81;3535779;83;99106;-80
2022/05/05 22:08:58;;;;;;;14.43;8.67;;;;;;;10.77;83.17;101115.70;3524816;82;99181;-80
2022/05/05 22:13:59;;;;;;;17.27;9.80;;;;;;;10.69;83.99;101114.53;3542921;82;98921;-80
2022/05/05 22:19:00;;;;;;;15.33;8.97;;;;;;;10.57;84.80;101128.43;3496974;84;99473;-80
2022/05/05 22:24:01;;;;;;;13.03;7.80;;;;;;;10.45;84.07;101130.72;3547668;82;99391;-80
2022/05/05 22:29:03;;;;;;;14.63;9.03;;;;;;;10.39;83.34;101128.02;3535206;82;26713;-81
2022/05/05 22:34:04;;;;;;;13.03;8.77;;;;;;;10.34;83.93;101133.80;3548744;82;98899;-80
2022/05/05 22:39:04;;;;;;;18.67;10.07;;;;;;;10.27;84.23;101133.64;3545188;82;98856;-79
2022/05/05 22:44:05;;;;;;;13.77;8.93;;;;;;;10.19;85.58;101125.59;3537625;80;99190;-80
2022/05/05 22:54:26;;;;;;;15.13;9.18;;;;;;;10.04;85.37;101122.27;3536470;82;99035;-80
2022/05/05 22:59:27;;;;;;;16.80;9.33;;;;;;;9.94;85.43;101125.52;3554237;82;98988;-80
2022/05/05 23:04:28;;;;;;;13.73;8.50;;;;;;;9.85;85.15;101125.70;3554960;82;98737;-80
2022/05/05 23:09:29;;;;;;;13.00;8.00;;;;;;;9.81;84.61;101131.68;3518277;83;98725;-80
2022/05/05 23:14:30;;;;;;;16.10;9.40;;;;;;;9.76;84.04;101134.69;3524501;83;98749;-80
2022/05/05 23:19:30;;;;;;;12.70;7.93;;;;;;;9.69;83.68;101130.40;3540132;82;98832;-80
2022/05/05 23:24:31;;;;;;;15.17;8.50;;;;;;;9.60;83.90;101123.48;3512626;83;98877;-80
2022/05/05 23:29:35;;;;;;;15.97;9.27;;;;;;;9.53;83.62;101126.02;3519834;83;98900;-80
2022/05/05 23:39:54;;;;;;;13.03;8.30;;;;;;;9.35;84.01;101131.07;3539204;83;98835;-80
2022/05/05 23:44:55;;;;;;;18.13;9.17;;;;;;;9.25;84.01;101128.83;3522075;83;98632;-80
2022/05/05 23:49:56;;;;;;;15.97;9.33;;;;;;;9.14;84.52;101137.91;3528865;81;98968;-80
2022/05/05 23:54:57;;;;;;;16.10;9.77;;;;;;;9.04;84.81;101138.41;3531809;83;99057;-80
2022/05/05 23:59:59;;;;;;;16.25;9.65;;;;;;;8.97;85.30;101128.61;3529598;82;98674;-80
